Wednesday, August 15, 2018, 12:49 AM EDT
Back to Local

KMVL, Morrisville Stowe State Airport

Location: Morrisville, VT, United States Lat: 44.533
Local Time: 12:49 AM EDT ( 4:49 GMT) Lon: -72.617
Time Zone: US/Eastern Elev: 731 ft

Show me the last for .
Show Decoded

2018-08-14 23:54 METAR KMVL 150354Z AUTO 00000KT 8SM CLR 18/18 A2984 RMK AO2 SLP101 T01830183 =
2018-08-14 22:54 METAR KMVL 150254Z AUTO 19003KT 10SM CLR 18/18 A2983 RMK AO2 SLP099 T01830183
                 50005 =
2018-08-14 21:54 METAR KMVL 150154Z AUTO 17005KT 10SM CLR 19/19 A2984 RMK AO2 LTG DSNT SW SLP101
                 T01940194 =
2018-08-14 20:54 METAR KMVL 150054Z AUTO 22003KT 10SM CLR 20/19 A2984 RMK AO2 SLP101 T02000194 =
2018-08-14 19:54 METAR KMVL 142354Z AUTO 00000KT 10SM CLR 21/20 A2981 RMK AO2 SLP093 T02110200
                 10289 20211 53002 =
2018-08-14 18:54 METAR KMVL 142254Z AUTO 00000KT 10SM CLR 24/20 A2980 RMK AO2 SLP089 T02440200 =
2018-08-14 17:54 METAR KMVL 142154Z AUTO 20006KT 10SM FEW085 26/19 A2981 RMK AO2 SLP093 T02610189
                 =
2018-08-14 16:54 METAR KMVL 142054Z AUTO 20003KT 10SM FEW085 27/18 A2981 RMK AO2 SLP091 T02670183
                 56017 =
2018-08-14 15:54 METAR KMVL 141954Z AUTO 17008KT 10SM FEW047 28/19 A2982 RMK AO2 SLP096 T02830189
                 =
2018-08-14 14:54 METAR KMVL 141854Z AUTO VRB03KT 10SM BKN045 BKN055 27/19 A2984 RMK AO2 SLP102
                 T02670189 =
2018-08-14 13:54 METAR KMVL 141754Z AUTO 17003KT 10SM SCT038 BKN050 27/20 A2986 RMK AO2 SLP108
                 T02670200 10278 20206 58013 =
2018-08-14 12:54 METAR KMVL 141654Z AUTO 20004KT 10SM FEW028 SCT034 BKN041 26/21 A2988 RMK AO2
                 SLP117 T02610206 =
2018-08-14 12:01 METAR KMVL 141601Z AUTO 20005KT 10SM SCT024 BKN030 OVC055 24/21 A2990 RMK AO2
                 T02440206 =
2018-08-14 11:54 METAR KMVL 141554Z AUTO 20004KT 10SM BKN024 BKN032 OVC060 24/21 A2990 RMK AO2
                 SLP122 T02440206 =
2018-08-14 11:37 METAR KMVL 141537Z AUTO VRB04KT 10SM FEW018 BKN036 OVC065 24/21 A2990 RMK AO2
                 T02390206 =
2018-08-14 10:54 METAR KMVL 141454Z AUTO 19004KT 10SM BKN019 OVC026 23/21 A2991 RMK AO2 SLP127
                 T02330206 58004 =
2018-08-14 09:54 METAR KMVL 141354Z AUTO 00000KT 10SM FEW014 BKN026 OVC049 23/21 A2992 RMK AO2
                 SLP130 T02280206 =
2018-08-14 09:01 METAR KMVL 141301Z AUTO 00000KT 10SM BKN024 OVC043 21/21 A2992 RMK AO2 T02110206
                 =
2018-08-14 08:54 METAR KMVL 141254Z AUTO 00000KT 10SM SCT024 OVC043 22/21 A2993 RMK AO2 SLP132
                 T02170211 =
2018-08-14 08:52 METAR KMVL 141252Z AUTO 00000KT 10SM SCT022 SCT027 OVC043 22/21 A2993 RMK AO2 =
2018-08-14 07:54 METAR KMVL 141154Z AUTO 00000KT 10SM BKN021 OVC080 21/20 A2993 RMK AO2 SLP132
                 60010 70010 T02060200 10206 20189 50000 =
2018-08-14 07:50 METAR KMVL 141150Z AUTO 01003KT 10SM BKN021 OVC080 21/20 A2993 RMK AO2 =
2018-08-14 07:39 METAR KMVL 141139Z AUTO 36003KT 10SM SCT023 OVC080 21/21 A2993 RMK AO2 T02060206
                 =
2018-08-14 06:54 METAR KMVL 141054Z AUTO 00000KT 10SM BKN024 OVC036 20/20 A2993 RMK AO2 RAB13E54
                 SLP132 P0001 T02000200 =
2018-08-14 06:41 METAR KMVL 141041Z AUTO 00000KT 6SM -RA BR SCT022 BKN029 OVC036 20/20 A2993 RMK
                 AO2 RAB13 P0001 T02000200 =
2018-08-14 05:54 METAR KMVL 140954Z AUTO VRB03KT 10SM FEW033 BKN043 OVC080 19/19 A2993 RMK AO2
                 RAE34 SLP132 P0004 T01940194 =
2018-08-14 04:54 METAR KMVL 140854Z AUTO 00000KT 5SM -RA BR SCT031 OVC047 19/19 A2994 RMK AO2
                 SLP136 P0004 60005 T01940194 56011 =
2018-08-14 03:54 METAR KMVL 140754Z AUTO 00000KT 5SM -RA BR BKN060 BKN075 OVC100 19/19 A2994 RMK
                 AO2 RAB45 SLP137 P0000 T01940194 =
2018-08-14 02:54 METAR KMVL 140654Z AUTO 00000KT 10SM FEW085 SCT120 19/19 A2996 RMK AO2 SLP142
                 P0001 T01890189 =
2018-08-14 01:54 METAR KMVL 140554Z AUTO 00000KT 10SM FEW120 19/19 A2997 RMK AO2 RAE10 SLP146
                 P0000 60000 T01940194 10222 20189 58010 =
2018-08-14 00:54 METAR KMVL 140454Z AUTO 00000KT 10SM -RA FEW060 BKN110 19/19 A2999 RMK AO2 RAB27
                 SLP151 P0000 T01890189 402890156 =

Support USWX by starting your Amazon purchase here.